createdAt,value
2023-04-09T00:02:15.747Z,179.98
2023-04-09T00:04:42.376Z,199.82
2023-04-09T00:07:09.125Z,198.68
2023-04-09T00:09:35.801Z,193.48
2023-04-09T00:12:03.397Z,223.98
2023-04-09T00:14:30.277Z,223.80
2023-04-09T00:16:56.904Z,234.80
2023-04-09T00:19:23.485Z,228.82
2023-04-09T00:21:50.239Z,224.38
2023-04-09T00:24:16.831Z,213.07
2023-04-09T00:26:43.457Z,227.73
2023-04-09T00:29:10.444Z,215.05
2023-04-09T00:31:37.039Z,230.73
2023-04-09T00:34:03.682Z,208.00
2023-04-09T00:36:30.854Z,215.98
2023-04-09T00:38:58.571Z,229.98
2023-04-09T00:41:25.415Z,237.93
2023-04-09T00:43:52.022Z,228.07
2023-04-09T00:46:18.955Z,253.77
2023-04-09T00:48:45.669Z,232.88
2023-04-09T00:51:12.290Z,257.17
2023-04-09T00:53:39.133Z,221.20
2023-04-09T00:56:06.558Z,200.13
2023-04-09T00:58:33.510Z,218.80
2023-04-09T01:01:00.276Z,229.45
2023-04-09T01:03:27.002Z,228.32
2023-04-09T01:06:17.597Z,234.90
2023-04-09T01:09:20.432Z,239.00
2023-04-09T01:12:10.564Z,208.07
2023-04-09T01:15:02.832Z,210.55
2023-04-09T01:17:44.073Z,203.57
2023-04-09T01:20:19.167Z,232.50
2023-04-09T01:23:14.113Z,238.25
2023-04-09T01:26:04.964Z,222.85
2023-04-09T01:28:47.418Z,225.25
2023-04-09T01:31:17.261Z,233.50
2023-04-09T01:33:45.426Z,257.58
2023-04-09T01:36:14.336Z,284.92
2023-04-09T01:38:42.784Z,268.60
2023-04-09T01:41:17.280Z,260.02
2023-04-09T01:43:45.344Z,248.57
2023-04-09T01:46:12.842Z,274.52
2023-04-09T01:48:40.240Z,263.30
2023-04-09T01:51:06.995Z,297.13
2023-04-09T01:53:33.639Z,283.77
2023-04-09T01:56:01.303Z,285.60
2023-04-09T01:58:28.137Z,301.75
2023-04-09T02:01:01.985Z,273.95
2023-04-09T02:03:47.116Z,276.90
2023-04-09T02:06:22.575Z,264.60
2023-04-09T02:08:52.453Z,266.00
2023-04-09T02:11:21.558Z,250.32
2023-04-09T02:13:51.624Z,261.58
2023-04-09T02:16:19.183Z,259.65
2023-04-09T02:18:46.109Z,241.50
2023-04-09T02:21:13.604Z,244.73
2023-04-09T02:23:40.983Z,260.10
2023-04-09T02:26:07.632Z,233.90
2023-04-09T02:28:34.333Z,254.63
2023-04-09T02:31:01.669Z,265.10
2023-04-09T02:33:30.315Z,233.77
2023-04-09T02:35:56.932Z,231.15
2023-04-09T02:38:24.762Z,235.10
2023-04-09T02:40:51.369Z,227.45
2023-04-09T02:43:18.008Z,218.43
2023-04-09T02:45:44.658Z,249.20
2023-04-09T02:48:11.289Z,283.08
2023-04-09T02:50:37.947Z,269.38
2023-04-09T02:53:04.592Z,234.85
2023-04-09T02:55:31.368Z,247.70
2023-04-09T02:57:58.035Z,224.50
2023-04-09T03:00:24.675Z,268.40
2023-04-09T03:02:51.712Z,254.68
2023-04-09T03:05:18.386Z,249.95
2023-04-09T03:07:45.513Z,238.63
2023-04-09T03:10:12.117Z,274.40
2023-04-09T03:12:38.720Z,275.83
2023-04-09T03:15:06.108Z,269.65
2023-04-09T03:17:32.764Z,246.70
2023-04-09T03:19:59.424Z,257.20
2023-04-09T03:22:39.641Z,271.05
2023-04-09T03:25:29.576Z,235.85
2023-04-09T03:27:56.170Z,269.73
2023-04-09T03:30:32.671Z,282.10
2023-04-09T03:33:01.769Z,254.02
2023-04-09T03:35:30.909Z,264.80
2023-04-09T03:37:59.551Z,223.20
2023-04-09T03:40:26.234Z,237.00
2023-04-09T03:42:52.817Z,237.20
2023-04-09T03:45:19.836Z,268.63
2023-04-09T03:47:49.050Z,327.25
2023-04-09T03:50:17.628Z,300.40
2023-04-09T03:52:50.933Z,277.38
2023-04-09T03:55:18.330Z,297.23
2023-04-09T03:57:45.150Z,358.33
2023-04-09T04:00:16.106Z,288.08
2023-04-09T04:03:00.773Z,248.65
2023-04-09T04:05:47.544Z,368.25
2023-04-09T04:08:16.319Z,307.58
2023-04-09T04:10:43.043Z,235.00
2023-04-09T04:13:11.621Z,222.90
2023-04-09T04:15:47.256Z,202.32
2023-04-09T04:18:15.615Z,223.80
2023-04-09T04:20:48.712Z,249.57
2023-04-09T04:23:15.522Z,265.45
2023-04-09T04:26:12.030Z,244.07
2023-04-09T04:28:40.659Z,276.80
2023-04-09T04:31:12.564Z,242.07
2023-04-09T04:33:42.048Z,257.67
2023-04-09T04:36:14.022Z,299.45
2023-04-09T04:38:51.909Z,282.52
2023-04-09T04:41:26.974Z,260.42
2023-04-09T04:44:05.573Z,247.93
2023-04-09T04:46:32.321Z,265.25
2023-04-09T04:48:59.209Z,293.80
2023-04-09T04:51:27.642Z,265.27
2023-04-09T04:54:02.482Z,225.02
2023-04-09T04:56:30.042Z,247.68
2023-04-09T04:59:09.956Z,258.20
2023-04-09T05:01:55.028Z,250.82
2023-04-09T05:04:21.795Z,221.48
2023-04-09T05:06:48.459Z,236.55
2023-04-09T05:09:21.862Z,256.08
2023-04-09T05:11:58.824Z,244.77
2023-04-09T05:14:26.161Z,222.88
2023-04-09T05:16:53.256Z,222.48
2023-04-09T05:19:24.081Z,221.05
2023-04-09T05:21:57.051Z,216.88
2023-04-09T05:24:24.220Z,227.13
2023-04-09T05:26:51.005Z,232.10
2023-04-09T05:29:17.621Z,231.10
2023-04-09T05:31:44.300Z,214.15
2023-04-09T05:34:20.492Z,240.70
2023-04-09T05:36:51.072Z,227.32
2023-04-09T05:39:19.527Z,218.05
2023-04-09T05:41:46.436Z,198.02
2023-04-09T05:44:30.979Z,230.05
2023-04-09T05:47:06.347Z,220.13
2023-04-09T05:49:44.526Z,203.73
2023-04-09T05:52:16.875Z,252.90
2023-04-09T05:54:43.949Z,258.75
2023-04-09T05:57:11.821Z,260.58
2023-04-09T05:59:41.786Z,231.50
2023-04-09T06:02:08.599Z,244.48
2023-04-09T06:04:35.447Z,236.57
2023-04-09T06:07:02.401Z,227.85
2023-04-09T06:09:29.112Z,237.85
2023-04-09T06:11:57.535Z,251.65
2023-04-09T06:14:24.447Z,216.00
2023-04-09T06:16:51.198Z,185.32
2023-04-09T06:19:18.666Z,208.35
2023-04-09T06:21:45.482Z,233.60
2023-04-09T06:24:12.169Z,206.30
2023-04-09T06:26:38.826Z,207.57
2023-04-09T06:29:05.691Z,190.93
2023-04-09T06:31:32.496Z,192.82
2023-04-09T06:33:59.894Z,175.63
2023-04-09T06:36:27.712Z,184.85
2023-04-09T06:38:54.679Z,199.95
2023-04-09T06:41:22.433Z,171.30
2023-04-09T06:43:49.776Z,192.15
2023-04-09T06:46:19.939Z,157.32
2023-04-09T06:48:47.064Z,167.82
2023-04-09T06:51:14.826Z,159.80
2023-04-09T06:53:41.990Z,155.05
2023-04-09T06:56:09.107Z,151.98
2023-04-09T06:58:36.125Z,140.60
2023-04-09T07:01:03.031Z,144.77
2023-04-09T07:03:30.028Z,140.65
2023-04-09T07:05:57.594Z,138.60
2023-04-09T07:08:24.752Z,125.68
2023-04-09T07:10:51.621Z,133.55
2023-04-09T07:13:18.717Z,104.68
2023-04-09T07:15:45.823Z,88.18
2023-04-09T07:18:12.740Z,88.72
2023-04-09T07:20:39.709Z,68.40
2023-04-09T07:23:06.456Z,73.68
2023-04-09T07:25:33.915Z,68.55
2023-04-09T07:28:00.845Z,63.00
2023-04-09T07:30:27.871Z,68.00
2023-04-09T07:32:55.065Z,64.00
2023-04-09T07:35:21.950Z,70.20
2023-04-09T07:37:48.709Z,64.03
2023-04-09T07:40:15.994Z,61.38
2023-04-09T07:42:42.732Z,68.57
2023-04-09T07:45:10.077Z,73.95
2023-04-09T07:47:37.995Z,56.90
2023-04-09T07:50:05.385Z,56.40
2023-04-09T07:52:32.062Z,79.75
2023-04-09T07:54:58.887Z,57.72
2023-04-09T07:57:26.444Z,62.83
2023-04-09T07:59:54.120Z,62.63
2023-04-09T08:02:21.348Z,65.50
2023-04-09T08:04:48.151Z,63.50
2023-04-09T08:07:15.123Z,65.97
2023-04-09T08:09:41.997Z,62.88
2023-04-09T08:12:08.905Z,53.25
2023-04-09T08:14:36.036Z,56.35
2023-04-09T08:17:03.234Z,55.75
2023-04-09T08:19:30.089Z,60.95
2023-04-09T08:21:58.737Z,63.45
2023-04-09T08:24:25.835Z,63.75
2023-04-09T08:26:52.509Z,60.45
2023-04-09T08:29:19.339Z,60.90
2023-04-09T08:31:46.031Z,60.20
2023-04-09T08:34:15.265Z,60.90
2023-04-09T08:36:45.696Z,55.70
2023-04-09T08:39:13.057Z,59.33
2023-04-09T08:41:45.810Z,56.88
2023-04-09T08:44:12.500Z,57.28
2023-04-09T08:46:39.260Z,58.13
2023-04-09T08:49:08.256Z,58.10
2023-04-09T08:51:34.941Z,55.80
2023-04-09T08:54:04.422Z,55.50
2023-04-09T08:56:32.036Z,57.63
2023-04-09T08:58:59.077Z,55.17
2023-04-09T09:01:28.899Z,57.08
2023-04-09T09:04:06.823Z,55.15
2023-04-09T09:06:40.177Z,56.70
2023-04-09T09:09:08.919Z,47.22
2023-04-09T09:11:45.457Z,49.63
2023-04-09T09:14:16.798Z,49.95
2023-04-09T09:17:03.536Z,45.63
2023-04-09T09:19:36.337Z,48.72
2023-04-09T09:22:04.817Z,48.28
2023-04-09T09:24:34.913Z,50.03
2023-04-09T09:27:02.958Z,47.95
2023-04-09T09:29:29.875Z,51.95
2023-04-09T09:31:57.201Z,47.30
2023-04-09T09:34:25.198Z,55.40
2023-04-09T09:36:52.477Z,61.88
2023-04-09T09:39:19.663Z,67.30
2023-04-09T09:41:47.145Z,55.47
2023-04-09T09:44:31.898Z,54.05
2023-04-09T09:46:59.537Z,53.53
2023-04-09T09:49:26.346Z,52.55
2023-04-09T09:51:56.203Z,55.38
2023-04-09T09:54:25.382Z,51.83
2023-04-09T09:56:55.596Z,54.03
2023-04-09T09:59:26.973Z,49.85
2023-04-09T10:02:01.391Z,48.00
2023-04-09T10:04:30.004Z,45.63
2023-04-09T10:06:57.670Z,47.65
2023-04-09T10:09:27.742Z,44.40
2023-04-09T10:11:56.429Z,46.38
2023-04-09T10:14:24.445Z,49.30
2023-04-09T10:16:51.435Z,51.95
2023-04-09T10:19:18.530Z,48.60
2023-04-09T10:22:10.352Z,47.70
2023-04-09T10:24:37.320Z,49.22
2023-04-09T10:27:17.102Z,60.88
2023-04-09T10:29:49.098Z,55.70
2023-04-09T10:32:26.405Z,50.50
2023-04-09T10:34:57.481Z,53.50
2023-04-09T10:37:26.002Z,52.45
2023-04-09T10:39:53.894Z,50.78
2023-04-09T10:42:32.650Z,51.75
2023-04-09T10:45:06.801Z,52.83
2023-04-09T10:47:35.900Z,54.92
2023-04-09T10:50:16.347Z,52.83
2023-04-09T10:52:44.155Z,53.38
2023-04-09T10:55:31.383Z,53.00
2023-04-09T10:57:58.762Z,50.80
2023-04-09T11:00:25.594Z,50.17
2023-04-09T11:03:32.731Z,49.88
2023-04-09T11:06:11.704Z,50.33
2023-04-09T11:08:38.952Z,50.17
2023-04-09T11:11:06.027Z,52.65
2023-04-09T11:13:32.982Z,51.88
2023-04-09T11:16:01.121Z,51.72
2023-04-09T11:18:30.141Z,52.25
2023-04-09T11:21:03.349Z,55.97
2023-04-09T11:23:30.963Z,53.50
2023-04-09T11:25:57.630Z,57.78
2023-04-09T11:28:25.210Z,53.63
2023-04-09T11:30:52.512Z,57.08
2023-04-09T11:33:20.411Z,54.72
2023-04-09T11:35:47.788Z,52.58
2023-04-09T11:38:14.650Z,51.97
2023-04-09T11:40:49.499Z,52.50
2023-04-09T11:43:17.861Z,51.75
2023-04-09T11:45:48.053Z,53.17
2023-04-09T11:48:17.986Z,54.35
2023-04-09T11:50:45.538Z,52.15
2023-04-09T11:53:16.815Z,51.72
2023-04-09T11:55:46.309Z,52.78
2023-04-09T11:58:13.263Z,52.67
2023-04-09T12:00:42.798Z,50.58
2023-04-09T12:03:10.760Z,54.05
2023-04-09T12:05:40.636Z,52.97
2023-04-09T12:08:09.036Z,62.22
2023-04-09T12:10:38.126Z,55.45
2023-04-09T12:13:13.498Z,55.60
2023-04-09T12:15:43.277Z,54.10
2023-04-09T12:18:12.244Z,48.55
2023-04-09T12:20:44.029Z,53.83
2023-04-09T12:23:12.144Z,54.15
2023-04-09T12:25:41.631Z,51.65
2023-04-09T12:28:11.087Z,50.15
2023-04-09T12:30:38.370Z,51.58
2023-04-09T12:33:05.253Z,53.40
2023-04-09T12:35:32.185Z,51.90
2023-04-09T12:38:01.706Z,52.17
2023-04-09T12:40:28.925Z,52.08
2023-04-09T12:42:55.746Z,51.15
2023-04-09T12:45:22.987Z,53.35
2023-04-09T12:47:49.997Z,53.65
2023-04-09T12:50:17.015Z,54.90
2023-04-09T12:52:44.244Z,56.33
2023-04-09T12:55:12.673Z,54.45
2023-04-09T12:57:42.293Z,52.40
2023-04-09T13:00:09.658Z,53.53
2023-04-09T13:02:36.888Z,52.42
2023-04-09T13:05:07.274Z,52.20
2023-04-09T13:07:33.941Z,55.92
2023-04-09T13:10:00.724Z,54.45
2023-04-09T13:12:27.440Z,54.13
2023-04-09T13:14:54.822Z,55.92
2023-04-09T13:17:22.073Z,52.53
2023-04-09T13:19:49.609Z,54.05
2023-04-09T13:22:16.681Z,53.65
2023-04-09T13:24:43.417Z,52.13
2023-04-09T13:27:11.187Z,52.83
2023-04-09T13:29:38.628Z,54.53
2023-04-09T13:32:07.333Z,57.42
2023-04-09T13:34:35.135Z,55.88
2023-04-09T13:37:05.313Z,54.40
2023-04-09T13:39:32.775Z,55.88
2023-04-09T13:42:00.295Z,51.50
2023-04-09T13:44:27.287Z,49.85
2023-04-09T13:46:54.091Z,52.38
2023-04-09T13:49:21.034Z,52.03
2023-04-09T13:51:50.018Z,54.75
2023-04-09T13:54:17.680Z,55.78
2023-04-09T13:56:46.034Z,54.67
2023-04-09T13:59:12.826Z,53.90
2023-04-09T14:01:39.583Z,58.88
2023-04-09T14:04:06.397Z,55.00
2023-04-09T14:06:33.674Z,55.75
2023-04-09T14:09:00.380Z,56.55
2023-04-09T14:11:27.195Z,54.60
2023-04-09T14:13:54.696Z,59.42
2023-04-09T14:16:21.566Z,62.85
2023-04-09T14:18:48.241Z,57.53
2023-04-09T14:21:15.407Z,65.43
2023-04-09T14:23:42.115Z,52.70
2023-04-09T14:26:08.833Z,58.33
2023-04-09T14:28:36.387Z,54.28
2023-04-09T14:31:03.283Z,51.35
2023-04-09T14:33:30.708Z,52.55
2023-04-09T14:35:58.560Z,53.83
2023-04-09T14:38:25.706Z,57.85
2023-04-09T14:40:52.629Z,65.50
2023-04-09T14:43:19.574Z,58.33
2023-04-09T14:45:46.205Z,67.43
2023-04-09T14:48:12.951Z,55.42
2023-04-09T14:50:41.080Z,49.88
2023-04-09T14:53:07.732Z,49.85
2023-04-09T14:55:34.622Z,57.58
2023-04-09T14:58:04.219Z,56.28
2023-04-09T15:00:31.774Z,54.85
2023-04-09T15:02:58.999Z,54.45
2023-04-09T15:05:26.363Z,54.00
2023-04-09T15:07:53.890Z,56.05
2023-04-09T15:10:20.961Z,56.88
2023-04-09T15:12:47.583Z,54.50
2023-04-09T15:15:14.486Z,54.58
2023-04-09T15:17:41.148Z,58.17
2023-04-09T15:20:08.377Z,60.25
2023-04-09T15:22:36.542Z,56.95
2023-04-09T15:25:03.493Z,53.05
2023-04-09T15:27:30.315Z,55.15
2023-04-09T15:29:57.042Z,55.70
2023-04-09T15:32:23.698Z,56.38
2023-04-09T15:34:50.539Z,57.15
2023-04-09T15:37:17.265Z,55.90
2023-04-09T15:39:44.057Z,56.42
2023-04-09T15:42:11.661Z,53.67
2023-04-09T15:44:40.381Z,53.83
2023-04-09T15:47:06.980Z,51.75
2023-04-09T15:49:35.509Z,52.53
2023-04-09T15:52:02.118Z,52.55
2023-04-09T15:54:28.730Z,53.10
2023-04-09T15:56:55.366Z,53.17
2023-04-09T15:59:22.547Z,53.22
2023-04-09T16:01:49.220Z,53.35
2023-04-09T16:04:15.949Z,49.88
2023-04-09T16:06:42.635Z,51.97
2023-04-09T16:09:09.356Z,57.45
2023-04-09T16:11:36.209Z,51.50
2023-04-09T16:14:03.686Z,54.00
2023-04-09T16:16:30.749Z,49.90
2023-04-09T16:18:57.406Z,51.80
2023-04-09T16:21:23.992Z,52.50
2023-04-09T16:23:50.650Z,49.47
2023-04-09T16:26:17.263Z,53.53
2023-04-09T16:28:43.884Z,50.72
2023-04-09T16:31:10.565Z,51.28
2023-04-09T16:33:37.141Z,49.92
2023-04-09T16:36:04.048Z,49.70
2023-04-09T16:38:31.217Z,52.03
2023-04-09T16:40:57.936Z,49.28
2023-04-09T16:43:25.344Z,52.20
2023-04-09T16:45:52.187Z,51.42
2023-04-09T16:48:19.195Z,52.25
2023-04-09T16:50:46.288Z,54.08
2023-04-09T16:53:12.979Z,53.65
2023-04-09T16:55:39.590Z,52.83
2023-04-09T16:58:06.255Z,52.65
2023-04-09T17:00:35.178Z,51.50
2023-04-09T17:03:02.222Z,63.28
2023-04-09T17:05:29.387Z,73.93
2023-04-09T17:07:56.093Z,62.80
2023-04-09T17:10:22.710Z,47.85
2023-04-09T17:12:50.531Z,45.08
2023-04-09T17:15:17.730Z,47.78
2023-04-09T17:17:47.721Z,48.65
2023-04-09T17:20:14.394Z,46.42
2023-04-09T17:22:41.062Z,47.55
2023-04-09T17:25:08.601Z,47.72
2023-04-09T17:27:35.546Z,47.13
2023-04-09T17:30:04.183Z,46.38
2023-04-09T17:32:31.383Z,49.10
2023-04-09T17:34:59.424Z,49.38
2023-04-09T17:37:28.497Z,50.47
2023-04-09T17:39:55.348Z,50.70
2023-04-09T17:42:23.232Z,50.25
2023-04-09T17:44:50.465Z,49.47
2023-04-09T17:47:17.772Z,48.65
2023-04-09T17:49:45.698Z,49.60
2023-04-09T17:52:13.032Z,60.67
2023-04-09T17:54:39.726Z,54.25
2023-04-09T17:57:07.045Z,49.67
2023-04-09T17:59:34.537Z,53.13
2023-04-09T18:02:01.976Z,50.53
2023-04-09T18:04:29.040Z,51.70
2023-04-09T18:06:56.256Z,38.58
2023-04-09T18:09:22.915Z,36.95
2023-04-09T18:11:53.310Z,34.38
2023-04-09T18:14:20.164Z,32.47
2023-04-09T18:16:47.149Z,36.58
2023-04-09T18:19:13.989Z,35.05
2023-04-09T18:21:40.669Z,34.13
2023-04-09T18:24:07.956Z,35.45
2023-04-09T18:26:34.710Z,34.08
2023-04-09T18:29:01.762Z,34.40
2023-04-09T18:31:28.692Z,34.20
2023-04-09T18:33:56.501Z,33.15
2023-04-09T18:36:24.173Z,34.67
2023-04-09T18:38:51.803Z,34.28
2023-04-09T18:41:26.402Z,34.42
2023-04-09T18:43:53.785Z,33.95
2023-04-09T18:46:20.472Z,35.63
2023-04-09T18:48:47.312Z,34.70
2023-04-09T18:51:18.881Z,34.05
2023-04-09T18:53:52.576Z,33.30
2023-04-09T18:56:19.934Z,33.00
2023-04-09T18:58:51.972Z,33.83
2023-04-09T19:01:19.963Z,35.78
2023-04-09T19:03:47.490Z,35.90
2023-04-09T19:06:19.199Z,35.05
2023-04-09T19:08:47.164Z,33.65
2023-04-09T19:11:14.812Z,31.33
2023-04-09T19:13:41.431Z,35.17
2023-04-09T19:16:11.245Z,36.35
2023-04-09T19:18:38.062Z,41.85
2023-04-09T19:21:07.240Z,45.05
2023-04-09T19:23:34.515Z,37.25
2023-04-09T19:26:02.053Z,35.13
2023-04-09T19:28:28.851Z,34.30
2023-04-09T19:30:55.615Z,34.05
2023-04-09T19:33:24.046Z,33.90
2023-04-09T19:35:52.161Z,34.63
2023-04-09T19:38:19.396Z,36.20
2023-04-09T19:40:46.736Z,38.83
2023-04-09T19:43:13.801Z,39.78
2023-04-09T19:45:42.449Z,41.17
2023-04-09T19:48:09.352Z,41.15
2023-04-09T19:50:37.781Z,38.25
2023-04-09T19:53:05.832Z,45.53
2023-04-09T19:55:33.486Z,46.67
2023-04-09T19:58:00.777Z,40.25
2023-04-09T20:00:28.150Z,48.97
2023-04-09T20:02:55.705Z,45.35
2023-04-09T20:05:22.648Z,45.92
2023-04-09T20:07:49.861Z,43.65
2023-04-09T20:10:16.953Z,40.47
2023-04-09T20:12:47.602Z,43.08
2023-04-09T20:15:14.680Z,47.67
2023-04-09T20:17:41.720Z,46.08
2023-04-09T20:20:08.821Z,45.10
2023-04-09T20:22:35.574Z,44.00
2023-04-09T20:25:02.427Z,46.22
2023-04-09T20:27:29.166Z,46.22
2023-04-09T20:29:56.290Z,43.00
2023-04-09T20:32:23.013Z,44.88
2023-04-09T20:34:49.715Z,41.45
2023-04-09T20:37:16.339Z,43.13
2023-04-09T20:39:43.130Z,42.83
2023-04-09T20:42:09.731Z,40.55
2023-04-09T20:44:36.562Z,42.10
2023-04-09T20:47:03.614Z,41.88
2023-04-09T20:49:30.505Z,40.78
2023-04-09T20:51:57.117Z,37.88
2023-04-09T20:54:23.774Z,44.17
2023-04-09T20:56:51.163Z,42.60
2023-04-09T20:59:18.982Z,43.65
2023-04-09T21:01:45.715Z,42.10
2023-04-09T21:04:12.907Z,43.28
2023-04-09T21:06:40.312Z,40.47
2023-04-09T21:09:07.066Z,39.55
2023-04-09T21:11:33.973Z,43.15
2023-04-09T21:14:00.670Z,42.38
2023-04-09T21:16:29.578Z,45.78
2023-04-09T21:18:56.463Z,47.97
2023-04-09T21:21:23.345Z,42.17
2023-04-09T21:23:50.061Z,44.25
2023-04-09T21:26:16.727Z,43.08
2023-04-09T21:28:43.874Z,42.30
2023-04-09T21:31:11.129Z,44.53
2023-04-09T21:33:39.036Z,46.13
2023-04-09T21:36:07.497Z,47.15
2023-04-09T21:38:34.246Z,42.33
2023-04-09T21:41:01.640Z,41.95
2023-04-09T21:43:29.052Z,41.15
2023-04-09T21:45:56.975Z,43.15
2023-04-09T21:48:24.024Z,44.40
2023-04-09T21:50:50.818Z,45.63
2023-04-09T21:53:17.785Z,42.65
2023-04-09T21:55:44.570Z,47.53
2023-04-09T21:58:12.469Z,47.55
2023-04-09T22:00:39.073Z,46.85
2023-04-09T22:03:06.119Z,48.05
2023-04-09T22:05:36.598Z,58.03
2023-04-09T22:08:03.344Z,44.15
2023-04-09T22:10:30.062Z,47.97
2023-04-09T22:12:56.694Z,47.80
2023-04-09T22:15:23.495Z,48.75
2023-04-09T22:17:50.155Z,49.97
2023-04-09T22:20:16.847Z,52.10
2023-04-09T22:22:43.755Z,48.42
2023-04-09T22:25:11.543Z,48.83
2023-04-09T22:27:38.314Z,46.60
2023-04-09T22:30:05.672Z,47.38
2023-04-09T22:32:33.363Z,46.35
2023-04-09T22:35:00.140Z,50.67
2023-04-09T22:37:27.561Z,49.35
2023-04-09T22:39:54.181Z,52.40
2023-04-09T22:42:20.844Z,52.65
2023-04-09T22:44:47.450Z,49.03
2023-04-09T22:47:14.035Z,51.40
2023-04-09T22:49:40.674Z,50.92
2023-04-09T22:52:08.208Z,52.20
2023-04-09T22:54:35.335Z,54.70
2023-04-09T22:57:02.046Z,58.75
2023-04-09T22:59:38.939Z,49.97
2023-04-09T23:02:06.356Z,49.28
2023-04-09T23:04:34.677Z,54.30
2023-04-09T23:07:02.128Z,57.13
2023-04-09T23:09:30.149Z,53.08
2023-04-09T23:11:57.007Z,54.97
2023-04-09T23:14:23.645Z,59.72
2023-04-09T23:16:50.269Z,61.72
2023-04-09T23:19:16.869Z,79.22
2023-04-09T23:21:43.609Z,88.22
2023-04-09T23:24:10.365Z,93.45
2023-04-09T23:26:37.160Z,77.63
2023-04-09T23:29:03.742Z,73.35
2023-04-09T23:31:30.364Z,70.93
2023-04-09T23:33:57.005Z,77.28
2023-04-09T23:36:24.071Z,73.30
2023-04-09T23:38:50.818Z,72.68
2023-04-09T23:41:17.508Z,66.78
2023-04-09T23:43:44.160Z,76.68
2023-04-09T23:46:10.799Z,69.13
2023-04-09T23:48:37.449Z,65.28
2023-04-09T23:51:04.340Z,69.03
2023-04-09T23:53:31.180Z,67.95
2023-04-09T23:58:46.308Z,65.80
